sensor_id;sensor_type;location;lat;lon;timestamp;P1;durP1;ratioP1;P2;durP2;ratioP2
5612;SDS011;63463;53.586;9.928;2023-03-01T00:02:02;15.87;;;10.03;;
5612;SDS011;63463;53.586;9.928;2023-03-01T00:04:29;12.63;;;9.67;;
5612;SDS011;63463;53.586;9.928;2023-03-01T00:06:55;12.00;;;8.53;;
5612;SDS011;63463;53.586;9.928;2023-03-01T00:09:22;14.10;;;9.37;;
5612;SDS011;63463;53.586;9.928;2023-03-01T00:11:49;14.07;;;9.53;;
5612;SDS011;63463;53.586;9.928;2023-03-01T00:14:15;17.07;;;9.50;;
5612;SDS011;63463;53.586;9.928;2023-03-01T00:16:42;12.93;;;9.53;;
5612;SDS011;63463;53.586;9.928;2023-03-01T00:19:09;12.50;;;8.70;;
5612;SDS011;63463;53.586;9.928;2023-03-01T00:21:37;14.60;;;9.40;;
5612;SDS011;63463;53.586;9.928;2023-03-01T00:24:03;13.63;;;9.03;;
5612;SDS011;63463;53.586;9.928;2023-03-01T00:26:29;12.50;;;9.00;;
5612;SDS011;63463;53.586;9.928;2023-03-01T00:28:56;11.43;;;8.27;;
5612;SDS011;63463;53.586;9.928;2023-03-01T00:31:23;9.60;;;8.60;;
5612;SDS011;63463;53.586;9.928;2023-03-01T00:33:53;11.13;;;8.60;;
5612;SDS011;63463;53.586;9.928;2023-03-01T00:36:24;10.70;;;8.13;;
5612;SDS011;63463;53.586;9.928;2023-03-01T00:38:50;11.93;;;9.50;;
5612;SDS011;63463;53.586;9.928;2023-03-01T00:41:17;9.80;;;8.80;;
5612;SDS011;63463;53.586;9.928;2023-03-01T00:43:44;11.93;;;9.30;;
5612;SDS011;63463;53.586;9.928;2023-03-01T00:46:11;11.67;;;9.00;;
5612;SDS011;63463;53.586;9.928;2023-03-01T00:48:37;12.23;;;8.90;;
5612;SDS011;63463;53.586;9.928;2023-03-01T00:51:07;10.57;;;8.80;;
5612;SDS011;63463;53.586;9.928;2023-03-01T00:53:34;15.70;;;9.50;;
5612;SDS011;63463;53.586;9.928;2023-03-01T00:56:01;19.33;;;10.73;;
5612;SDS011;63463;53.586;9.928;2023-03-01T00:58:27;15.60;;;10.30;;
5612;SDS011;63463;53.586;9.928;2023-03-01T01:00:53;12.37;;;9.40;;
5612;SDS011;63463;53.586;9.928;2023-03-01T01:03:19;22.90;;;11.73;;
5612;SDS011;63463;53.586;9.928;2023-03-01T01:05:45;17.87;;;10.57;;
5612;SDS011;63463;53.586;9.928;2023-03-01T01:08:11;16.63;;;10.67;;
5612;SDS011;63463;53.586;9.928;2023-03-01T01:10:37;10.73;;;9.67;;
5612;SDS011;63463;53.586;9.928;2023-03-01T01:13:03;13.97;;;10.73;;
5612;SDS011;63463;53.586;9.928;2023-03-01T01:15:33;12.00;;;9.70;;
5612;SDS011;63463;53.586;9.928;2023-03-01T01:17:59;20.17;;;10.10;;
5612;SDS011;63463;53.586;9.928;2023-03-01T01:20:26;12.37;;;9.97;;
5612;SDS011;63463;53.586;9.928;2023-03-01T01:22:52;10.77;;;9.57;;
5612;SDS011;63463;53.586;9.928;2023-03-01T01:25:18;12.77;;;9.90;;
5612;SDS011;63463;53.586;9.928;2023-03-01T01:27:44;13.73;;;10.53;;
5612;SDS011;63463;53.586;9.928;2023-03-01T01:30:10;12.47;;;9.50;;
5612;SDS011;63463;53.586;9.928;2023-03-01T01:32:36;11.43;;;9.50;;
5612;SDS011;63463;53.586;9.928;2023-03-01T01:35:02;11.87;;;9.87;;
5612;SDS011;63463;53.586;9.928;2023-03-01T01:37:28;13.93;;;9.00;;
5612;SDS011;63463;53.586;9.928;2023-03-01T01:39:58;10.60;;;9.50;;
5612;SDS011;63463;53.586;9.928;2023-03-01T01:42:24;18.73;;;10.97;;
5612;SDS011;63463;53.586;9.928;2023-03-01T01:47:35;14.57;;;9.53;;
5612;SDS011;63463;53.586;9.928;2023-03-01T01:50:01;11.23;;;9.53;;
5612;SDS011;63463;53.586;9.928;2023-03-01T01:52:32;17.63;;;10.43;;
5612;SDS011;63463;53.586;9.928;2023-03-01T01:55:02;13.57;;;9.60;;
5612;SDS011;63463;53.586;9.928;2023-03-01T01:57:31;12.07;;;10.10;;
5612;SDS011;63463;53.586;9.928;2023-03-01T02:00:03;13.93;;;9.70;;
5612;SDS011;63463;53.586;9.928;2023-03-01T02:02:30;12.40;;;10.10;;
5612;SDS011;63463;53.586;9.928;2023-03-01T02:07:48;9.70;;;8.83;;
5612;SDS011;63463;53.586;9.928;2023-03-01T02:10:15;13.13;;;9.83;;
5612;SDS011;63463;53.586;9.928;2023-03-01T02:12:41;10.87;;;9.40;;
5612;SDS011;63463;53.586;9.928;2023-03-01T02:15:07;11.00;;;8.70;;
5612;SDS011;63463;53.586;9.928;2023-03-01T02:17:33;10.77;;;9.50;;
5612;SDS011;63463;53.586;9.928;2023-03-01T02:20:07;10.07;;;9.07;;
5612;SDS011;63463;53.586;9.928;2023-03-01T02:22:40;10.57;;;9.40;;
5612;SDS011;63463;53.586;9.928;2023-03-01T02:30:11;11.23;;;10.10;;
5612;SDS011;63463;53.586;9.928;2023-03-01T02:32:38;13.73;;;9.80;;
5612;SDS011;63463;53.586;9.928;2023-03-01T02:35:06;10.10;;;9.10;;
5612;SDS011;63463;53.586;9.928;2023-03-01T02:37:33;11.70;;;9.13;;
5612;SDS011;63463;53.586;9.928;2023-03-01T02:40:03;15.10;;;10.30;;
5612;SDS011;63463;53.586;9.928;2023-03-01T02:42:30;15.10;;;9.90;;
5612;SDS011;63463;53.586;9.928;2023-03-01T02:44:57;9.77;;;8.63;;
5612;SDS011;63463;53.586;9.928;2023-03-01T02:47:23;23.13;;;9.90;;
5612;SDS011;63463;53.586;9.928;2023-03-01T02:49:49;10.57;;;9.03;;
5612;SDS011;63463;53.586;9.928;2023-03-01T02:55:06;10.27;;;9.10;;
5612;SDS011;63463;53.586;9.928;2023-03-01T02:57:34;13.10;;;9.80;;
5612;SDS011;63463;53.586;9.928;2023-03-01T03:00:02;11.27;;;10.03;;
5612;SDS011;63463;53.586;9.928;2023-03-01T03:02:32;13.90;;;9.80;;
5612;SDS011;63463;53.586;9.928;2023-03-01T03:05:05;14.43;;;9.87;;
5612;SDS011;63463;53.586;9.928;2023-03-01T03:07:33;11.30;;;9.90;;
5612;SDS011;63463;53.586;9.928;2023-03-01T03:09:59;11.37;;;9.50;;
5612;SDS011;63463;53.586;9.928;2023-03-01T03:12:25;14.27;;;9.90;;
5612;SDS011;63463;53.586;9.928;2023-03-01T03:14:51;18.50;;;9.13;;
5612;SDS011;63463;53.586;9.928;2023-03-01T03:17:17;13.60;;;9.77;;
5612;SDS011;63463;53.586;9.928;2023-03-01T03:19:43;13.60;;;10.40;;
5612;SDS011;63463;53.586;9.928;2023-03-01T03:22:10;9.67;;;8.67;;
5612;SDS011;63463;53.586;9.928;2023-03-01T03:24:36;15.63;;;8.60;;
5612;SDS011;63463;53.586;9.928;2023-03-01T03:27:06;11.43;;;10.10;;
5612;SDS011;63463;53.586;9.928;2023-03-01T03:29:32;9.03;;;8.23;;
5612;SDS011;63463;53.586;9.928;2023-03-01T03:31:58;14.77;;;10.20;;
5612;SDS011;63463;53.586;9.928;2023-03-01T03:34:24;11.13;;;9.33;;
5612;SDS011;63463;53.586;9.928;2023-03-01T03:36:54;15.30;;;10.57;;
5612;SDS011;63463;53.586;9.928;2023-03-01T03:39:25;10.33;;;9.33;;
5612;SDS011;63463;53.586;9.928;2023-03-01T03:41:52;11.53;;;9.33;;
5612;SDS011;63463;53.586;9.928;2023-03-01T03:44:19;33.80;;;8.73;;
5612;SDS011;63463;53.586;9.928;2023-03-01T03:46:45;13.27;;;9.50;;
5612;SDS011;63463;53.586;9.928;2023-03-01T03:49:11;10.43;;;9.43;;
5612;SDS011;63463;53.586;9.928;2023-03-01T03:51:37;12.97;;;8.73;;
5612;SDS011;63463;53.586;9.928;2023-03-01T03:54:03;19.67;;;9.97;;
5612;SDS011;63463;53.586;9.928;2023-03-01T03:56:29;26.03;;;10.23;;
5612;SDS011;63463;53.586;9.928;2023-03-01T03:58:55;11.33;;;9.50;;
5612;SDS011;63463;53.586;9.928;2023-03-01T04:01:22;11.90;;;9.13;;
5612;SDS011;63463;53.586;9.928;2023-03-01T04:03:48;15.23;;;8.53;;
5612;SDS011;63463;53.586;9.928;2023-03-01T04:06:19;9.50;;;8.60;;
5612;SDS011;63463;53.586;9.928;2023-03-01T04:08:45;10.67;;;8.30;;
5612;SDS011;63463;53.586;9.928;2023-03-01T04:11:11;10.10;;;8.27;;
5612;SDS011;63463;53.586;9.928;2023-03-01T04:13:53;11.33;;;8.77;;
5612;SDS011;63463;53.586;9.928;2023-03-01T04:16:19;11.70;;;8.67;;
5612;SDS011;63463;53.586;9.928;2023-03-01T04:18:45;11.70;;;7.90;;
5612;SDS011;63463;53.586;9.928;2023-03-01T04:21:11;10.97;;;9.63;;
5612;SDS011;63463;53.586;9.928;2023-03-01T04:23:37;12.17;;;8.63;;
5612;SDS011;63463;53.586;9.928;2023-03-01T04:26:05;9.77;;;7.90;;
5612;SDS011;63463;53.586;9.928;2023-03-01T04:28:41;9.80;;;8.90;;
5612;SDS011;63463;53.586;9.928;2023-03-01T04:31:12;9.30;;;8.40;;
5612;SDS011;63463;53.586;9.928;2023-03-01T04:33:41;10.40;;;8.30;;
5612;SDS011;63463;53.586;9.928;2023-03-01T04:36:08;10.17;;;8.67;;
5612;SDS011;63463;53.586;9.928;2023-03-01T04:38:35;12.57;;;9.30;;
5612;SDS011;63463;53.586;9.928;2023-03-01T04:41:02;16.23;;;8.83;;
5612;SDS011;63463;53.586;9.928;2023-03-01T04:43:28;8.70;;;7.90;;
5612;SDS011;63463;53.586;9.928;2023-03-01T04:45:59;10.17;;;9.13;;
5612;SDS011;63463;53.586;9.928;2023-03-01T04:48:27;12.60;;;8.33;;
5612;SDS011;63463;53.586;9.928;2023-03-01T04:50:53;9.20;;;8.27;;
5612;SDS011;63463;53.586;9.928;2023-03-01T04:53:19;10.57;;;8.97;;
5612;SDS011;63463;53.586;9.928;2023-03-01T04:55:45;11.40;;;8.50;;
5612;SDS011;63463;53.586;9.928;2023-03-01T04:58:11;11.17;;;8.57;;
5612;SDS011;63463;53.586;9.928;2023-03-01T05:00:38;10.90;;;8.47;;
5612;SDS011;63463;53.586;9.928;2023-03-01T05:03:04;8.80;;;7.90;;
5612;SDS011;63463;53.586;9.928;2023-03-01T05:05:31;10.90;;;8.17;;
5612;SDS011;63463;53.586;9.928;2023-03-01T05:07:58;9.00;;;8.20;;
5612;SDS011;63463;53.586;9.928;2023-03-01T05:10:26;14.00;;;8.50;;
5612;SDS011;63463;53.586;9.928;2023-03-01T05:12:53;15.93;;;8.30;;
5612;SDS011;63463;53.586;9.928;2023-03-01T05:15:20;9.40;;;8.30;;
5612;SDS011;63463;53.586;9.928;2023-03-01T05:17:47;22.90;;;8.30;;
5612;SDS011;63463;53.586;9.928;2023-03-01T05:20:13;13.90;;;7.70;;
5612;SDS011;63463;53.586;9.928;2023-03-01T05:22:39;13.40;;;8.53;;
5612;SDS011;63463;53.586;9.928;2023-03-01T05:25:05;10.53;;;7.80;;
5612;SDS011;63463;53.586;9.928;2023-03-01T05:27:32;9.30;;;8.40;;
5612;SDS011;63463;53.586;9.928;2023-03-01T05:29:59;10.87;;;8.10;;
5612;SDS011;63463;53.586;9.928;2023-03-01T05:32:38;11.00;;;8.80;;
5612;SDS011;63463;53.586;9.928;2023-03-01T05:35:04;10.07;;;8.00;;
5612;SDS011;63463;53.586;9.928;2023-03-01T05:37:30;33.77;;;9.30;;
5612;SDS011;63463;53.586;9.928;2023-03-01T05:39:56;13.30;;;7.60;;
5612;SDS011;63463;53.586;9.928;2023-03-01T05:42:22;9.67;;;7.20;;
5612;SDS011;63463;53.586;9.928;2023-03-01T05:44:48;11.73;;;8.60;;
5612;SDS011;63463;53.586;9.928;2023-03-01T05:47:14;8.30;;;7.60;;
5612;SDS011;63463;53.586;9.928;2023-03-01T05:49:40;16.63;;;7.60;;
5612;SDS011;63463;53.586;9.928;2023-03-01T05:52:06;12.20;;;7.83;;
5612;SDS011;63463;53.586;9.928;2023-03-01T05:54:32;8.03;;;6.87;;
5612;SDS011;63463;53.586;9.928;2023-03-01T05:56:58;10.50;;;6.97;;
5612;SDS011;63463;53.586;9.928;2023-03-01T05:59:24;10.77;;;7.53;;
5612;SDS011;63463;53.586;9.928;2023-03-01T06:01:50;18.83;;;7.27;;
5612;SDS011;63463;53.586;9.928;2023-03-01T06:04:16;7.60;;;6.90;;
5612;SDS011;63463;53.586;9.928;2023-03-01T06:06:42;9.40;;;7.37;;
5612;SDS011;63463;53.586;9.928;2023-03-01T06:09:08;8.33;;;7.33;;
5612;SDS011;63463;53.586;9.928;2023-03-01T06:11:35;10.43;;;7.43;;
5612;SDS011;63463;53.586;9.928;2023-03-01T06:14:01;17.20;;;7.57;;
5612;SDS011;63463;53.586;9.928;2023-03-01T06:16:27;10.20;;;6.97;;
5612;SDS011;63463;53.586;9.928;2023-03-01T06:18:53;12.90;;;8.27;;
5612;SDS011;63463;53.586;9.928;2023-03-01T06:21:19;10.70;;;7.43;;
5612;SDS011;63463;53.586;9.928;2023-03-01T06:23:45;9.33;;;7.60;;
5612;SDS011;63463;53.586;9.928;2023-03-01T06:26:11;10.03;;;7.13;;
5612;SDS011;63463;53.586;9.928;2023-03-01T06:28:37;7.90;;;7.20;;
5612;SDS011;63463;53.586;9.928;2023-03-01T06:31:03;7.50;;;6.83;;
5612;SDS011;63463;53.586;9.928;2023-03-01T06:33:33;7.37;;;6.80;;
5612;SDS011;63463;53.586;9.928;2023-03-01T06:35:59;7.10;;;6.63;;
5612;SDS011;63463;53.586;9.928;2023-03-01T06:38:25;7.80;;;7.10;;
5612;SDS011;63463;53.586;9.928;2023-03-01T06:40:52;8.17;;;7.30;;
5612;SDS011;63463;53.586;9.928;2023-03-01T06:43:19;9.37;;;7.07;;
5612;SDS011;63463;53.586;9.928;2023-03-01T06:45:45;10.00;;;6.77;;
5612;SDS011;63463;53.586;9.928;2023-03-01T06:48:11;10.63;;;7.43;;
5612;SDS011;63463;53.586;9.928;2023-03-01T06:50:37;11.60;;;7.93;;
5612;SDS011;63463;53.586;9.928;2023-03-01T06:53:03;8.17;;;7.23;;
5612;SDS011;63463;53.586;9.928;2023-03-01T06:55:30;9.57;;;7.93;;
5612;SDS011;63463;53.586;9.928;2023-03-01T06:57:57;14.03;;;7.73;;
5612;SDS011;63463;53.586;9.928;2023-03-01T07:00:23;19.93;;;7.23;;
5612;SDS011;63463;53.586;9.928;2023-03-01T07:02:49;25.87;;;7.47;;
5612;SDS011;63463;53.586;9.928;2023-03-01T07:05:16;9.70;;;7.77;;
5612;SDS011;63463;53.586;9.928;2023-03-01T07:07:42;15.53;;;7.97;;
5612;SDS011;63463;53.586;9.928;2023-03-01T07:10:08;9.37;;;8.40;;
5612;SDS011;63463;53.586;9.928;2023-03-01T07:12:34;8.07;;;7.37;;
5612;SDS011;63463;53.586;9.928;2023-03-01T07:15:00;8.33;;;7.50;;
5612;SDS011;63463;53.586;9.928;2023-03-01T07:17:27;7.60;;;7.10;;
5612;SDS011;63463;53.586;9.928;2023-03-01T07:19:53;10.50;;;8.00;;
5612;SDS011;63463;53.586;9.928;2023-03-01T07:22:19;9.73;;;7.37;;
5612;SDS011;63463;53.586;9.928;2023-03-01T07:24:45;12.40;;;8.10;;
5612;SDS011;63463;53.586;9.928;2023-03-01T07:27:12;25.93;;;9.00;;
5612;SDS011;63463;53.586;9.928;2023-03-01T07:29:39;10.40;;;8.30;;
5612;SDS011;63463;53.586;9.928;2023-03-01T07:32:05;19.90;;;9.20;;
5612;SDS011;63463;53.586;9.928;2023-03-01T07:34:32;10.97;;;8.17;;
5612;SDS011;63463;53.586;9.928;2023-03-01T07:36:58;10.33;;;9.23;;
5612;SDS011;63463;53.586;9.928;2023-03-01T07:39:26;9.90;;;8.90;;
5612;SDS011;63463;53.586;9.928;2023-03-01T07:41:52;12.67;;;9.57;;
5612;SDS011;63463;53.586;9.928;2023-03-01T07:44:18;12.07;;;8.90;;
5612;SDS011;63463;53.586;9.928;2023-03-01T07:46:45;15.33;;;9.37;;
5612;SDS011;63463;53.586;9.928;2023-03-01T07:49:11;17.67;;;9.90;;
5612;SDS011;63463;53.586;9.928;2023-03-01T07:51:38;13.50;;;10.00;;
5612;SDS011;63463;53.586;9.928;2023-03-01T07:54:04;14.67;;;10.97;;
5612;SDS011;63463;53.586;9.928;2023-03-01T07:56:30;13.23;;;10.17;;
5612;SDS011;63463;53.586;9.928;2023-03-01T07:58:58;17.93;;;10.20;;
5612;SDS011;63463;53.586;9.928;2023-03-01T08:01:25;20.70;;;11.03;;
5612;SDS011;63463;53.586;9.928;2023-03-01T08:03:51;12.07;;;10.77;;
5612;SDS011;63463;53.586;9.928;2023-03-01T08:06:18;20.10;;;12.13;;
5612;SDS011;63463;53.586;9.928;2023-03-01T08:08:44;15.70;;;11.70;;
5612;SDS011;63463;53.586;9.928;2023-03-01T08:11:11;17.10;;;12.50;;
5612;SDS011;63463;53.586;9.928;2023-03-01T08:13:39;27.20;;;12.80;;
5612;SDS011;63463;53.586;9.928;2023-03-01T08:16:12;27.67;;;12.83;;
5612;SDS011;63463;53.586;9.928;2023-03-01T08:18:53;25.30;;;12.60;;
5612;SDS011;63463;53.586;9.928;2023-03-01T08:21:21;16.47;;;11.80;;
5612;SDS011;63463;53.586;9.928;2023-03-01T08:23:51;44.90;;;13.23;;
5612;SDS011;63463;53.586;9.928;2023-03-01T08:26:18;20.20;;;11.90;;
5612;SDS011;63463;53.586;9.928;2023-03-01T08:28:44;21.10;;;13.17;;
5612;SDS011;63463;53.586;9.928;2023-03-01T08:31:14;20.10;;;13.20;;
5612;SDS011;63463;53.586;9.928;2023-03-01T08:33:41;19.10;;;12.97;;
5612;SDS011;63463;53.586;9.928;2023-03-01T08:36:07;19.63;;;13.03;;
5612;SDS011;63463;53.586;9.928;2023-03-01T08:38:36;33.40;;;14.13;;
5612;SDS011;63463;53.586;9.928;2023-03-01T08:41:02;18.27;;;13.17;;
5612;SDS011;63463;53.586;9.928;2023-03-01T08:43:29;22.73;;;13.37;;
5612;SDS011;63463;53.586;9.928;2023-03-01T08:45:55;19.63;;;13.47;;
5612;SDS011;63463;53.586;9.928;2023-03-01T08:48:21;17.33;;;13.00;;
5612;SDS011;63463;53.586;9.928;2023-03-01T08:50:47;22.20;;;14.20;;
5612;SDS011;63463;53.586;9.928;2023-03-01T08:53:13;21.13;;;14.10;;
5612;SDS011;63463;53.586;9.928;2023-03-01T08:55:39;21.20;;;14.23;;
5612;SDS011;63463;53.586;9.928;2023-03-01T08:58:05;21.47;;;14.77;;
5612;SDS011;63463;53.586;9.928;2023-03-01T09:00:31;22.97;;;14.47;;
5612;SDS011;63463;53.586;9.928;2023-03-01T09:03:00;25.73;;;14.30;;
5612;SDS011;63463;53.586;9.928;2023-03-01T09:05:27;26.57;;;14.70;;
5612;SDS011;63463;53.586;9.928;2023-03-01T09:07:53;21.50;;;14.10;;
5612;SDS011;63463;53.586;9.928;2023-03-01T09:10:19;21.53;;;13.23;;
5612;SDS011;63463;53.586;9.928;2023-03-01T09:12:45;22.17;;;14.83;;
5612;SDS011;63463;53.586;9.928;2023-03-01T09:15:11;25.00;;;14.70;;
5612;SDS011;63463;53.586;9.928;2023-03-01T09:17:37;22.70;;;13.63;;
5612;SDS011;63463;53.586;9.928;2023-03-01T09:20:03;26.87;;;14.10;;
5612;SDS011;63463;53.586;9.928;2023-03-01T09:22:32;24.67;;;15.30;;
5612;SDS011;63463;53.586;9.928;2023-03-01T09:25:00;24.30;;;14.47;;
5612;SDS011;63463;53.586;9.928;2023-03-01T09:27:26;27.90;;;15.73;;
5612;SDS011;63463;53.586;9.928;2023-03-01T09:29:52;21.63;;;14.13;;
5612;SDS011;63463;53.586;9.928;2023-03-01T09:32:18;24.73;;;14.63;;
5612;SDS011;63463;53.586;9.928;2023-03-01T09:34:44;20.93;;;13.57;;
5612;SDS011;63463;53.586;9.928;2023-03-01T09:37:27;25.80;;;14.27;;
5612;SDS011;63463;53.586;9.928;2023-03-01T09:39:53;21.93;;;14.07;;
5612;SDS011;63463;53.586;9.928;2023-03-01T09:42:19;24.43;;;14.50;;
5612;SDS011;63463;53.586;9.928;2023-03-01T09:47:12;27.03;;;15.57;;
5612;SDS011;63463;53.586;9.928;2023-03-01T09:49:40;27.33;;;14.50;;
5612;SDS011;63463;53.586;9.928;2023-03-01T09:54:40;30.73;;;15.10;;
5612;SDS011;63463;53.586;9.928;2023-03-01T10:02:21;29.50;;;14.40;;
5612;SDS011;63463;53.586;9.928;2023-03-01T10:04:49;25.70;;;14.23;;
5612;SDS011;63463;53.586;9.928;2023-03-01T10:10:00;20.43;;;13.97;;
5612;SDS011;63463;53.586;9.928;2023-03-01T10:12:34;18.93;;;13.20;;
5612;SDS011;63463;53.586;9.928;2023-03-01T10:20:22;21.40;;;13.77;;
5612;SDS011;63463;53.586;9.928;2023-03-01T10:22:49;25.50;;;14.70;;
5612;SDS011;63463;53.586;9.928;2023-03-01T10:26:06;29.60;;;14.87;;
5612;SDS011;63463;53.586;9.928;2023-03-01T10:30:49;24.87;;;14.60;;
5612;SDS011;63463;53.586;9.928;2023-03-01T10:35:42;18.90;;;13.13;;
5612;SDS011;63463;53.586;9.928;2023-03-01T10:38:09;30.47;;;12.70;;
5612;SDS011;63463;53.586;9.928;2023-03-01T10:40:37;28.97;;;13.03;;
5612;SDS011;63463;53.586;9.928;2023-03-01T10:43:14;18.40;;;12.77;;
5612;SDS011;63463;53.586;9.928;2023-03-01T10:45:42;16.30;;;11.33;;
5612;SDS011;63463;53.586;9.928;2023-03-01T10:50:34;17.53;;;11.67;;
5612;SDS011;63463;53.586;9.928;2023-03-01T10:53:03;20.20;;;11.57;;
5612;SDS011;63463;53.586;9.928;2023-03-01T10:55:31;13.07;;;9.93;;
5612;SDS011;63463;53.586;9.928;2023-03-01T10:58:07;16.40;;;10.33;;
5612;SDS011;63463;53.586;9.928;2023-03-01T11:00:33;19.73;;;10.40;;
5612;SDS011;63463;53.586;9.928;2023-03-01T11:03:11;15.47;;;10.47;;
5612;SDS011;63463;53.586;9.928;2023-03-01T11:05:50;14.87;;;10.23;;
5612;SDS011;63463;53.586;9.928;2023-03-01T11:08:26;18.67;;;10.03;;
5612;SDS011;63463;53.586;9.928;2023-03-01T11:11:03;12.50;;;9.47;;
5612;SDS011;63463;53.586;9.928;2023-03-01T11:13:29;18.00;;;11.00;;
5612;SDS011;63463;53.586;9.928;2023-03-01T11:16:00;16.10;;;10.40;;
5612;SDS011;63463;53.586;9.928;2023-03-01T11:18:26;14.17;;;10.07;;
5612;SDS011;63463;53.586;9.928;2023-03-01T11:20:55;16.20;;;10.00;;
5612;SDS011;63463;53.586;9.928;2023-03-01T11:23:21;14.30;;;9.87;;
5612;SDS011;63463;53.586;9.928;2023-03-01T11:25:58;16.20;;;10.07;;
5612;SDS011;63463;53.586;9.928;2023-03-01T11:28:27;16.37;;;10.17;;
5612;SDS011;63463;53.586;9.928;2023-03-01T11:30:55;16.63;;;10.20;;
5612;SDS011;63463;53.586;9.928;2023-03-01T11:33:28;11.73;;;9.33;;
5612;SDS011;63463;53.586;9.928;2023-03-01T11:36:01;12.97;;;9.37;;
5612;SDS011;63463;53.586;9.928;2023-03-01T11:38:28;19.60;;;9.37;;
5612;SDS011;63463;53.586;9.928;2023-03-01T11:41:08;14.57;;;9.53;;
5612;SDS011;63463;53.586;9.928;2023-03-01T11:43:51;14.17;;;9.57;;
5612;SDS011;63463;53.586;9.928;2023-03-01T11:46:28;14.33;;;8.90;;
5612;SDS011;63463;53.586;9.928;2023-03-01T11:49:02;14.00;;;9.70;;
5612;SDS011;63463;53.586;9.928;2023-03-01T11:51:45;10.77;;;8.40;;
5612;SDS011;63463;53.586;9.928;2023-03-01T11:54:19;14.70;;;9.07;;
5612;SDS011;63463;53.586;9.928;2023-03-01T11:56:54;11.60;;;8.33;;
5612;SDS011;63463;53.586;9.928;2023-03-01T12:10:11;8.80;;;7.20;;
5612;SDS011;63463;53.586;9.928;2023-03-01T12:15:39;10.43;;;7.30;;
5612;SDS011;63463;53.586;9.928;2023-03-01T12:20:55;7.93;;;6.70;;
5612;SDS011;63463;53.586;9.928;2023-03-01T12:28:51;13.07;;;7.87;;
5612;SDS011;63463;53.586;9.928;2023-03-01T12:42:02;8.37;;;7.53;;
5612;SDS011;63463;53.586;9.928;2023-03-01T12:49:47;14.07;;;8.17;;
5612;SDS011;63463;53.586;9.928;2023-03-01T12:55:41;21.60;;;9.10;;
5612;SDS011;63463;53.586;9.928;2023-03-01T13:00:39;8.73;;;7.80;;
5612;SDS011;63463;53.586;9.928;2023-03-01T13:11:12;9.80;;;7.97;;
5612;SDS011;63463;53.586;9.928;2023-03-01T13:13:40;9.90;;;8.10;;
5612;SDS011;63463;53.586;9.928;2023-03-01T13:16:38;14.73;;;8.53;;
5612;SDS011;63463;53.586;9.928;2023-03-01T13:21:36;13.23;;;8.40;;
5612;SDS011;63463;53.586;9.928;2023-03-01T13:24:02;13.27;;;9.40;;
5612;SDS011;63463;53.586;9.928;2023-03-01T13:26:28;14.70;;;9.47;;
5612;SDS011;63463;53.586;9.928;2023-03-01T13:28:55;14.23;;;9.57;;
5612;SDS011;63463;53.586;9.928;2023-03-01T13:33:52;14.80;;;9.27;;
5612;SDS011;63463;53.586;9.928;2023-03-01T13:49:46;12.63;;;9.17;;
5612;SDS011;63463;53.586;9.928;2023-03-01T13:54:47;16.33;;;9.07;;
5612;SDS011;63463;53.586;9.928;2023-03-01T13:57:18;10.20;;;8.40;;
5612;SDS011;63463;53.586;9.928;2023-03-01T13:59:47;11.63;;;8.20;;
5612;SDS011;63463;53.586;9.928;2023-03-01T14:02:13;12.73;;;8.30;;
5612;SDS011;63463;53.586;9.928;2023-03-01T14:04:39;14.93;;;7.90;;
5612;SDS011;63463;53.586;9.928;2023-03-01T14:09:39;9.37;;;7.30;;
5612;SDS011;63463;53.586;9.928;2023-03-01T14:14:38;9.00;;;7.43;;
5612;SDS011;63463;53.586;9.928;2023-03-01T14:19:47;8.50;;;7.63;;
5612;SDS011;63463;53.586;9.928;2023-03-01T14:24:41;12.07;;;8.80;;
5612;SDS011;63463;53.586;9.928;2023-03-01T14:27:11;10.90;;;8.63;;
5612;SDS011;63463;53.586;9.928;2023-03-01T14:29:38;9.37;;;7.43;;
5612;SDS011;63463;53.586;9.928;2023-03-01T14:32:12;15.80;;;8.10;;
5612;SDS011;63463;53.586;9.928;2023-03-01T14:34:42;11.50;;;7.20;;
5612;SDS011;63463;53.586;9.928;2023-03-01T14:37:21;9.80;;;7.87;;
5612;SDS011;63463;53.586;9.928;2023-03-01T14:39:48;7.90;;;7.00;;
5612;SDS011;63463;53.586;9.928;2023-03-01T14:42:14;9.93;;;7.60;;
5612;SDS011;63463;53.586;9.928;2023-03-01T14:44:42;12.47;;;8.30;;
5612;SDS011;63463;53.586;9.928;2023-03-01T14:47:15;8.27;;;7.20;;
5612;SDS011;63463;53.586;9.928;2023-03-01T14:49:42;10.30;;;7.73;;
5612;SDS011;63463;53.586;9.928;2023-03-01T14:52:20;9.67;;;7.30;;
5612;SDS011;63463;53.586;9.928;2023-03-01T14:54:48;11.70;;;7.97;;
5612;SDS011;63463;53.586;9.928;2023-03-01T14:57:15;11.50;;;8.40;;
5612;SDS011;63463;53.586;9.928;2023-03-01T14:59:42;8.90;;;7.20;;
5612;SDS011;63463;53.586;9.928;2023-03-01T15:02:10;9.20;;;7.87;;
5612;SDS011;63463;53.586;9.928;2023-03-01T15:04:49;10.10;;;7.80;;
5612;SDS011;63463;53.586;9.928;2023-03-01T15:07:16;12.00;;;7.53;;
5612;SDS011;63463;53.586;9.928;2023-03-01T15:09:43;11.00;;;8.00;;
5612;SDS011;63463;53.586;9.928;2023-03-01T15:14:55;13.27;;;8.70;;
5612;SDS011;63463;53.586;9.928;2023-03-01T15:17:35;10.63;;;8.30;;
5612;SDS011;63463;53.586;9.928;2023-03-01T15:20:02;12.20;;;8.40;;
5612;SDS011;63463;53.586;9.928;2023-03-01T15:22:29;15.50;;;8.80;;
5612;SDS011;63463;53.586;9.928;2023-03-01T15:24:55;15.10;;;9.00;;
5612;SDS011;63463;53.586;9.928;2023-03-01T15:27:23;16.77;;;9.30;;
5612;SDS011;63463;53.586;9.928;2023-03-01T15:32:30;15.10;;;8.73;;
5612;SDS011;63463;53.586;9.928;2023-03-01T15:35:00;10.00;;;8.67;;
5612;SDS011;63463;53.586;9.928;2023-03-01T15:37:38;10.97;;;8.43;;
5612;SDS011;63463;53.586;9.928;2023-03-01T15:40:17;13.37;;;9.00;;
5612;SDS011;63463;53.586;9.928;2023-03-01T15:42:44;13.07;;;10.00;;
5612;SDS011;63463;53.586;9.928;2023-03-01T15:45:20;14.13;;;9.50;;
5612;SDS011;63463;53.586;9.928;2023-03-01T15:47:47;12.70;;;9.77;;
5612;SDS011;63463;53.586;9.928;2023-03-01T15:50:19;16.37;;;10.40;;
5612;SDS011;63463;53.586;9.928;2023-03-01T15:52:46;15.83;;;10.83;;
5612;SDS011;63463;53.586;9.928;2023-03-01T15:57:46;17.07;;;11.00;;
5612;SDS011;63463;53.586;9.928;2023-03-01T16:00:12;14.50;;;10.67;;
5612;SDS011;63463;53.586;9.928;2023-03-01T16:02:40;18.30;;;12.00;;
5612;SDS011;63463;53.586;9.928;2023-03-01T16:05:20;20.33;;;11.27;;
5612;SDS011;63463;53.586;9.928;2023-03-01T16:07:48;20.73;;;12.40;;
5612;SDS011;63463;53.586;9.928;2023-03-01T16:10:15;22.30;;;11.90;;
5612;SDS011;63463;53.586;9.928;2023-03-01T16:12:41;19.83;;;11.60;;
5612;SDS011;63463;53.586;9.928;2023-03-01T16:15:10;19.43;;;12.03;;
5612;SDS011;63463;53.586;9.928;2023-03-01T16:17:39;30.27;;;11.57;;
5612;SDS011;63463;53.586;9.928;2023-03-01T16:20:05;16.77;;;10.73;;
5612;SDS011;63463;53.586;9.928;2023-03-01T16:22:31;19.83;;;11.60;;
5612;SDS011;63463;53.586;9.928;2023-03-01T16:24:59;25.23;;;11.77;;
5612;SDS011;63463;53.586;9.928;2023-03-01T16:27:25;17.90;;;11.13;;
5612;SDS011;63463;53.586;9.928;2023-03-01T16:29:52;16.97;;;11.43;;
5612;SDS011;63463;53.586;9.928;2023-03-01T16:32:18;14.63;;;10.90;;
5612;SDS011;63463;53.586;9.928;2023-03-01T16:34:45;17.67;;;10.90;;
5612;SDS011;63463;53.586;9.928;2023-03-01T16:37:14;16.87;;;10.60;;
5612;SDS011;63463;53.586;9.928;2023-03-01T16:39:40;16.60;;;10.10;;
5612;SDS011;63463;53.586;9.928;2023-03-01T16:42:06;20.70;;;11.00;;
5612;SDS011;63463;53.586;9.928;2023-03-01T16:44:33;21.40;;;10.20;;
5612;SDS011;63463;53.586;9.928;2023-03-01T16:46:59;19.13;;;10.80;;
5612;SDS011;63463;53.586;9.928;2023-03-01T16:49:25;18.50;;;10.50;;
5612;SDS011;63463;53.586;9.928;2023-03-01T16:51:53;18.93;;;10.97;;
5612;SDS011;63463;53.586;9.928;2023-03-01T16:54:19;13.37;;;10.13;;
5612;SDS011;63463;53.586;9.928;2023-03-01T16:56:45;18.83;;;10.30;;
5612;SDS011;63463;53.586;9.928;2023-03-01T16:59:11;12.57;;;9.33;;
5612;SDS011;63463;53.586;9.928;2023-03-01T17:01:37;11.60;;;9.00;;